Time;durP1;ratioP1;P1;durP2;ratioP2;P2;SDS_P1;SDS_P2;PMS_P1;PMS_P2;Temp;Humidity;BMP_temperature;BMP_pressure;BME280_temperature;BME280_humidity;BME280_pressure;Samples;Min_cycle;Max_cycle;Signal;HPM_P1;HPM_P2
2021/12/02 00:02:22;;;;;;;15.47;7.90;;;;;;;-0.30;100.00;95800.88;5029899;28;20050;-63
2021/12/02 00:04:50;;;;;;;15.47;8.03;;;;;;;-0.27;100.00;95789.53;5012926;28;20076;-62
2021/12/02 00:07:17;;;;;;;16.50;8.07;;;;;;;-0.25;100.00;95798.03;5029609;28;21551;-62
2021/12/02 00:09:44;;;;;;;15.77;8.40;;;;;;;-0.32;100.00;95804.44;5029887;28;20122;-62
2021/12/02 00:12:12;;;;;;;14.57;7.37;;;;;;;-0.27;100.00;95797.28;5011762;28;20139;-62
2021/12/02 00:14:44;;;;;;;13.70;7.17;;;;;;;-0.32;100.00;95802.69;5029435;28;20137;-63
2021/12/02 00:17:15;;;;;;;19.47;8.00;;;;;;;-0.34;100.00;95799.38;5029332;28;20053;-63
2021/12/02 00:22:31;;;;;;;16.87;8.93;;;;;;;-0.30;100.00;95795.69;5029198;28;20053;-62
2021/12/02 00:25:03;;;;;;;19.07;8.47;;;;;;;-0.34;100.00;95796.78;5029550;28;20041;-62
2021/12/02 00:27:30;;;;;;;16.90;8.27;;;;;;;-0.42;100.00;95793.78;5030402;28;20049;-63
2021/12/02 00:29:59;;;;;;;14.10;7.60;;;;;;;-0.37;100.00;95798.69;5029424;28;20053;-62
2021/12/02 00:32:28;;;;;;;13.50;7.13;;;;;;;-0.43;100.00;95799.84;5029478;28;20124;-62
2021/12/02 00:34:57;;;;;;;15.47;7.70;;;;;;;-0.39;100.00;95810.84;5027512;28;21355;-62
2021/12/02 00:37:26;;;;;;;16.30;8.20;;;;;;;-0.56;100.00;95805.75;5027309;28;20493;-62
2021/12/02 00:39:55;;;;;;;15.07;8.30;;;;;;;-0.63;100.00;95791.50;5029004;28;20132;-62
2021/12/02 00:42:22;;;;;;;14.03;7.73;;;;;;;-0.56;100.00;95788.53;5029528;28;20455;-62
2021/12/02 00:44:50;;;;;;;17.70;8.00;;;;;;;-0.60;100.00;95793.94;5029239;28;20053;-62
2021/12/02 00:47:17;;;;;;;14.70;7.60;;;;;;;-0.65;100.00;95791.59;5028457;28;20053;-63
2021/12/02 00:49:48;;;;;;;15.40;8.57;;;;;;;-0.60;100.00;95804.25;5029962;28;20120;-62
2021/12/02 00:52:16;;;;;;;15.43;8.13;;;;;;;-0.44;100.00;95798.19;5031303;28;20092;-61
2021/12/02 00:54:43;;;;;;;16.47;8.03;;;;;;;-0.43;100.00;95793.88;5032551;28;20398;-62
2021/12/02 00:57:13;;;;;;;14.20;7.83;;;;;;;-0.41;100.00;95794.63;5033640;28;20107;-61
2021/12/02 00:59:41;;;;;;;15.50;8.13;;;;;;;-0.38;100.00;95800.44;5034872;28;20077;-61
2021/12/02 01:02:11;;;;;;;14.50;8.20;;;;;;;-0.35;100.00;95789.13;5033880;28;20469;-61
2021/12/02 01:04:38;;;;;;;14.80;7.37;;;;;;;-0.25;100.00;95793.69;5032793;28;20133;-61
2021/12/02 01:07:05;;;;;;;17.87;7.87;;;;;;;-0.31;100.00;95783.72;5033134;28;20041;-62
2021/12/02 01:09:33;;;;;;;15.37;7.30;;;;;;;-0.29;100.00;95797.34;5032893;28;20046;-62
2021/12/02 01:12:00;;;;;;;14.87;7.27;;;;;;;-0.14;100.00;95798.28;5034695;28;20474;-63
2021/12/02 01:14:29;;;;;;;13.23;6.90;;;;;;;-0.08;100.00;95785.03;5034770;28;20049;-62
2021/12/02 01:16:56;;;;;;;14.17;6.80;;;;;;;0.05;100.00;95775.69;5034400;28;20091;-63
2021/12/02 01:19:23;;;;;;;14.93;7.10;;;;;;;-0.02;100.00;95782.94;5032720;28;20049;-63
2021/12/02 01:21:52;;;;;;;15.87;7.63;;;;;;;-0.04;100.00;95779.63;5032554;28;20050;-61
2021/12/02 01:24:20;;;;;;;15.87;8.00;;;;;;;-0.07;100.00;95771.19;5032727;28;20406;-62
2021/12/02 01:26:53;;;;;;;17.00;7.57;;;;;;;-0.18;100.00;95773.53;5032419;28;20494;-62
2021/12/02 01:29:23;;;;;;;15.10;7.35;;;;;;;-0.22;100.00;95774.63;5033332;28;20049;-62
2021/12/02 01:31:55;;;;;;;15.70;7.73;;;;;;;-0.27;100.00;95779.22;5032351;28;20450;-62
2021/12/02 01:34:24;;;;;;;18.13;7.93;;;;;;;-0.19;100.00;95772.72;5032029;28;20057;-63
2021/12/02 01:36:53;;;;;;;16.53;9.00;;;;;;;-0.20;100.00;95772.81;5032702;28;20954;-64
2021/12/02 01:39:20;;;;;;;16.03;7.83;;;;;;;-0.22;100.00;95757.41;5032086;28;20053;-63
2021/12/02 01:41:51;;;;;;;16.97;7.80;;;;;;;-0.22;100.00;95756.56;5032123;28;20045;-64
2021/12/02 01:44:20;;;;;;;17.47;8.53;;;;;;;-0.26;100.00;95753.34;5031993;28;20064;-62
2021/12/02 01:46:49;;;;;;;13.53;7.37;;;;;;;-0.16;100.00;95754.50;5033642;28;21496;-62
2021/12/02 01:49:19;;;;;;;14.37;7.07;;;;;;;-0.15;100.00;95752.72;5031785;28;20053;-62
2021/12/02 01:51:49;;;;;;;15.20;7.37;;;;;;;-0.20;100.00;95750.44;5030873;28;20467;-61
2021/12/02 01:54:18;;;;;;;15.80;9.30;;;;;;;-0.23;100.00;95749.75;5032608;28;20517;-60
2021/12/02 01:56:48;;;;;;;14.53;8.63;;;;;;;-0.26;100.00;95750.75;5031762;28;20100;-62
2021/12/02 01:59:18;;;;;;;14.63;7.33;;;;;;;-0.33;100.00;95759.75;5032011;28;20152;-61
2021/12/02 02:01:47;;;;;;;15.53;7.43;;;;;;;-0.43;100.00;95763.72;5033447;28;20088;-61
2021/12/02 02:04:16;;;;;;;15.30;7.30;;;;;;;-0.40;100.00;95763.56;5033551;28;20099;-61
2021/12/02 02:06:55;;;;;;;14.87;6.70;;;;;;;-0.48;100.00;95760.59;5033274;28;20124;-61
2021/12/02 02:09:22;;;;;;;13.17;7.23;;;;;;;-0.45;100.00;95764.75;5031995;28;20061;-61
2021/12/02 02:11:49;;;;;;;15.33;7.33;;;;;;;-0.45;100.00;95762.16;5031464;28;20100;-60
2021/12/02 02:14:17;;;;;;;13.57;7.23;;;;;;;-0.42;100.00;95744.78;5031473;28;20465;-61
2021/12/02 02:16:44;;;;;;;13.70;6.57;;;;;;;-0.36;100.00;95747.00;5031535;28;20052;-61
2021/12/02 02:19:12;;;;;;;11.27;6.80;;;;;;;-0.40;100.00;95747.25;5032439;28;20045;-61
2021/12/02 02:21:42;;;;;;;13.10;7.37;;;;;;;-0.41;100.00;95741.28;5031895;28;20042;-62
2021/12/02 02:24:13;;;;;;;14.30;5.63;;;;;;;-0.43;100.00;95743.09;5031076;28;20054;-61
2021/12/02 02:26:41;;;;;;;12.10;6.03;;;;;;;-0.34;100.00;95747.78;5031379;28;20585;-61
2021/12/02 02:29:11;;;;;;;11.60;6.33;;;;;;;-0.41;100.00;95759.34;5033037;28;20552;-61
2021/12/02 02:31:41;;;;;;;11.87;6.77;;;;;;;-0.33;100.00;95758.91;5029585;28;20120;-61
2021/12/02 02:34:08;;;;;;;16.37;6.37;;;;;;;-0.25;100.00;95760.16;5031294;28;20135;-61
2021/12/02 02:36:40;;;;;;;12.33;6.77;;;;;;;-0.15;100.00;95753.56;5031221;28;20150;-61
2021/12/02 02:39:09;;;;;;;13.57;6.13;;;;;;;-0.18;100.00;95740.00;5032709;28;20045;-61
2021/12/02 02:41:40;;;;;;;17.23;7.60;;;;;;;-0.16;100.00;95746.75;5031497;28;20056;-66
2021/12/02 02:44:08;;;;;;;11.20;6.33;;;;;;;-0.09;100.00;95749.81;5031069;28;20044;-60
2021/12/02 02:46:37;;;;;;;10.90;6.40;;;;;;;-0.06;100.00;95739.31;5013474;28;20095;-61
2021/12/02 02:49:06;;;;;;;10.10;5.60;;;;;;;-0.09;100.00;95748.06;5030648;28;20379;-61
2021/12/02 02:51:36;;;;;;;11.40;5.60;;;;;;;-0.09;100.00;95742.06;5032055;28;20455;-60
2021/12/02 02:54:05;;;;;;;11.13;5.97;;;;;;;-0.13;100.00;95751.72;5030636;28;20053;-61
2021/12/02 02:56:38;;;;;;;11.53;6.33;;;;;;;0.07;100.00;95746.28;5030832;28;20052;-61
2021/12/02 02:59:12;;;;;;;12.15;6.43;;;;;;;0.23;100.00;95738.50;5032149;28;20936;-61
2021/12/02 03:01:48;;;;;;;9.40;5.63;;;;;;;0.40;100.00;95743.53;5030813;28;20054;-61
2021/12/02 03:04:28;;;;;;;10.50;4.73;;;;;;;0.53;100.00;95739.31;5030748;28;20435;-62
2021/12/02 03:06:59;;;;;;;8.03;4.83;;;;;;;0.62;100.00;95724.09;5032152;28;20122;-62
2021/12/02 03:09:46;;;;;;;10.83;5.67;;;;;;;0.88;100.00;95727.72;5030812;28;20067;-60
2021/12/02 03:12:19;;;;;;;10.70;5.13;;;;;;;0.88;100.00;95714.78;5012511;28;20061;-60
2021/12/02 03:17:31;;;;;;;10.10;4.85;;;;;;;0.65;100.00;95723.09;4976100;28;20127;-62
2021/12/02 03:20:00;;;;;;;11.43;6.33;;;;;;;0.40;100.00;95723.69;5030161;28;20132;-61
2021/12/02 03:22:28;;;;;;;12.33;5.97;;;;;;;0.27;100.00;95733.06;5030157;28;20092;-62
2021/12/02 03:24:55;;;;;;;9.53;5.67;;;;;;;0.25;100.00;95734.06;5030410;28;20053;-62
2021/12/02 03:27:24;;;;;;;11.70;6.20;;;;;;;0.16;100.00;95729.44;5029913;28;20049;-61
2021/12/02 03:29:51;;;;;;;11.53;6.03;;;;;;;0.05;100.00;95732.63;5030355;28;20132;-61
2021/12/02 03:32:18;;;;;;;11.23;5.97;;;;;;;0.04;100.00;95722.38;5030199;28;20104;-61
2021/12/02 03:34:45;;;;;;;9.40;4.77;;;;;;;0.26;100.00;95728.81;5030154;28;20050;-61
2021/12/02 03:37:13;;;;;;;7.93;4.17;;;;;;;0.51;100.00;95721.31;5031299;28;20065;-62
2021/12/02 03:39:40;;;;;;;8.37;4.43;;;;;;;0.71;100.00;95731.28;5029960;28;20042;-61
2021/12/02 03:42:07;;;;;;;7.67;3.43;;;;;;;0.90;100.00;95729.28;5030097;28;20619;-61
2021/12/02 03:44:36;;;;;;;9.57;4.43;;;;;;;0.91;100.00;95727.53;5029962;28;20053;-62
2021/12/02 03:47:03;;;;;;;10.40;4.10;;;;;;;0.84;100.00;95732.25;5030075;28;20826;-70
2021/12/02 03:49:31;;;;;;;6.00;4.00;;;;;;;0.84;100.00;95721.06;5029889;28;20045;-61
2021/12/02 03:51:58;;;;;;;7.97;4.40;;;;;;;0.94;100.00;95720.41;5027405;28;20057;-62
2021/12/02 03:54:25;;;;;;;9.73;4.60;;;;;;;0.86;100.00;95719.22;5030010;28;20057;-62
2021/12/02 03:56:52;;;;;;;6.93;4.13;;;;;;;0.81;100.00;95714.31;5030052;28;20053;-62
2021/12/02 03:59:19;;;;;;;9.60;5.17;;;;;;;0.96;100.00;95705.66;5030021;28;20049;-62
2021/12/02 04:01:47;;;;;;;9.37;4.00;;;;;;;0.98;100.00;95714.16;5029981;28;20052;-61
2021/12/02 04:04:15;;;;;;;6.63;3.70;;;;;;;1.04;100.00;95713.75;5029943;28;20049;-61
2021/12/02 04:06:43;;;;;;;6.50;4.03;;;;;;;1.21;100.00;95705.81;5031320;28;20490;-61
2021/12/02 04:09:14;;;;;;;7.07;3.47;;;;;;;1.25;100.00;95709.03;5031597;28;20076;-60
2021/12/02 04:11:44;;;;;;;10.27;4.90;;;;;;;1.23;100.00;95714.28;5031644;28;20161;-60
2021/12/02 04:14:17;;;;;;;8.90;4.23;;;;;;;1.22;100.00;95710.06;5027692;28;20156;-62
2021/12/02 04:16:53;;;;;;;9.48;4.93;;;;;;;1.20;100.00;95714.50;5029341;28;20116;-61
2021/12/02 04:19:22;;;;;;;8.47;5.27;;;;;;;1.30;100.00;95697.47;5029854;28;20123;-61
2021/12/02 04:21:49;;;;;;;8.73;4.87;;;;;;;1.37;100.00;95698.75;5029546;28;20041;-61
2021/12/02 04:24:16;;;;;;;12.30;4.83;;;;;;;1.48;100.00;95701.50;5029678;28;20092;-62
2021/12/02 04:26:43;;;;;;;8.37;5.27;;;;;;;1.30;100.00;95704.41;5029362;28;20052;-61
2021/12/02 04:29:11;;;;;;;9.10;4.43;;;;;;;1.30;100.00;95719.94;5032583;28;20067;-61
2021/12/02 04:31:41;;;;;;;8.27;5.03;;;;;;;1.33;100.00;95701.63;5034615;28;20055;-61
2021/12/02 04:34:10;;;;;;;8.93;4.67;;;;;;;1.52;100.00;95704.75;5032653;28;20049;-60
2021/12/02 04:36:37;;;;;;;9.13;4.40;;;;;;;1.63;100.00;95697.94;5032931;28;20565;-62
2021/12/02 04:39:04;;;;;;;10.80;4.87;;;;;;;1.83;100.00;95683.72;5031642;28;20578;-60
2021/12/02 04:41:32;;;;;;;11.70;4.40;;;;;;;1.85;100.00;95680.13;5033915;28;20053;-60
2021/12/02 04:43:59;;;;;;;8.33;3.93;;;;;;;1.88;100.00;95671.31;5017073;28;20041;-61
2021/12/02 04:46:26;;;;;;;6.07;3.13;;;;;;;1.92;100.00;95665.84;5034038;28;20049;-60
2021/12/02 04:48:53;;;;;;;8.80;4.37;;;;;;;1.91;100.00;95668.53;5032434;28;20049;-61
2021/12/02 04:51:22;;;;;;;6.20;3.53;;;;;;;1.92;100.00;95667.59;5032775;28;20055;-60
2021/12/02 04:53:49;;;;;;;4.87;3.10;;;;;;;2.02;100.00;95663.47;5032630;28;20041;-61
2021/12/02 04:56:16;;;;;;;7.77;3.73;;;;;;;2.02;100.00;95668.66;5014901;28;20188;-62
2021/12/02 04:58:43;;;;;;;10.20;4.03;;;;;;;2.17;100.00;95670.25;5032402;28;20136;-62
2021/12/02 05:01:10;;;;;;;5.70;3.50;;;;;;;2.07;100.00;95671.78;5032201;28;20057;-62
2021/12/02 05:03:37;;;;;;;5.63;2.67;;;;;;;2.13;100.00;95666.19;5032100;28;20049;-61
2021/12/02 05:06:04;;;;;;;7.63;3.30;;;;;;;2.06;100.00;95677.88;5031950;28;20056;-62
2021/12/02 05:08:32;;;;;;;6.63;2.90;;;;;;;2.00;100.00;95692.06;5031707;28;20061;-63
2021/12/02 05:10:59;;;;;;;5.53;3.27;;;;;;;2.08;100.00;95699.34;5031808;28;20061;-62
2021/12/02 05:13:27;;;;;;;5.33;2.63;;;;;;;2.06;100.00;95715.94;5031807;28;20045;-62
2021/12/02 05:15:54;;;;;;;6.10;3.83;;;;;;;2.20;100.00;95708.06;5032554;28;20053;-62
2021/12/02 05:18:21;;;;;;;6.33;3.93;;;;;;;2.17;100.00;95708.28;5033872;28;20112;-63
2021/12/02 05:20:48;;;;;;;10.90;5.57;;;;;;;2.19;100.00;95709.00;5033958;28;20475;-63
2021/12/02 05:23:16;;;;;;;18.87;9.77;;;;;;;2.04;100.00;95711.66;5033456;28;20127;-63
2021/12/02 05:25:45;;;;;;;11.57;5.23;;;;;;;2.07;100.00;95717.56;5016150;28;20057;-62
2021/12/02 05:28:13;;;;;;;8.10;3.50;;;;;;;2.29;100.00;95708.28;5015962;28;20503;-62
2021/12/02 05:30:40;;;;;;;6.27;3.03;;;;;;;2.46;100.00;95712.34;5015146;28;20130;-63
2021/12/02 05:33:07;;;;;;;7.47;3.00;;;;;;;2.48;100.00;95710.50;5031696;28;20049;-69
2021/12/02 05:35:34;;;;;;;7.73;2.67;;;;;;;2.43;100.00;95716.00;5031565;28;20182;-68
2021/12/02 05:38:02;;;;;;;5.97;2.60;;;;;;;2.45;100.00;95726.25;5031787;28;20951;-62
2021/12/02 05:40:29;;;;;;;5.23;2.77;;;;;;;2.47;100.00;95729.59;5015017;28;20144;-63
2021/12/02 05:42:57;;;;;;;4.53;2.70;;;;;;;2.38;100.00;95737.97;5032500;28;20038;-63
2021/12/02 05:45:25;;;;;;;6.23;2.50;;;;;;;2.31;100.00;95732.34;5031525;28;20116;-63
2021/12/02 05:47:52;;;;;;;4.47;2.50;;;;;;;2.30;100.00;95733.28;5031640;28;20501;-62
2021/12/02 05:50:19;;;;;;;4.63;2.10;;;;;;;2.36;100.00;95732.88;5033003;28;20051;-62
2021/12/02 05:52:46;;;;;;;2.90;2.00;;;;;;;2.31;100.00;95728.91;5033037;28;20063;-62
2021/12/02 05:55:13;;;;;;;8.27;4.03;;;;;;;2.40;100.00;95738.69;5031600;28;20049;-62
2021/12/02 05:57:40;;;;;;;5.30;2.87;;;;;;;2.47;100.00;95743.38;5031345;28;20057;-62
2021/12/02 06:00:10;;;;;;;10.10;2.53;;;;;;;2.65;100.00;95743.94;4997747;28;20103;-62
2021/12/02 06:02:40;;;;;;;6.10;2.65;;;;;;;2.87;100.00;95750.16;5031312;28;20104;-63
2021/12/02 06:05:08;;;;;;;5.97;2.70;;;;;;;2.88;100.00;95749.22;5032495;28;20145;-62
2021/12/02 06:07:37;;;;;;;6.00;2.77;;;;;;;2.86;100.00;95745.91;5030885;28;20439;-62
2021/12/02 06:10:05;;;;;;;5.67;3.00;;;;;;;2.70;100.00;95742.69;5030350;28;20111;-62
2021/12/02 06:12:34;;;;;;;5.50;2.90;;;;;;;2.62;100.00;95733.75;5031048;28;20049;-62
2021/12/02 06:15:01;;;;;;;4.60;2.73;;;;;;;2.58;100.00;95742.69;5030738;28;20138;-61
2021/12/02 06:17:29;;;;;;;5.20;2.63;;;;;;;2.85;100.00;95753.78;5030626;28;20053;-62
2021/12/02 06:19:56;;;;;;;4.80;2.40;;;;;;;2.58;100.00;95745.28;5030812;28;20077;-62
2021/12/02 06:22:23;;;;;;;4.77;2.90;;;;;;;2.66;100.00;95755.94;5031174;28;20096;-69
2021/12/02 06:25:05;;;;;;;3.87;2.50;;;;;;;2.80;100.00;95767.06;5031381;28;20501;-63
2021/12/02 06:27:33;;;;;;;5.27;2.50;;;;;;;2.70;100.00;95757.41;5033067;28;20420;-62
2021/12/02 06:30:00;;;;;;;4.80;2.50;;;;;;;2.87;100.00;95757.13;5033739;28;20111;-62
2021/12/02 06:32:27;;;;;;;3.57;2.10;;;;;;;2.91;100.00;95764.56;5035037;28;20049;-61
2021/12/02 06:34:55;;;;;;;7.27;2.63;;;;;;;2.77;100.00;95756.06;5034776;28;20048;-62
2021/12/02 06:37:23;;;;;;;8.27;3.27;;;;;;;2.84;100.00;95754.72;5035042;28;20136;-61
2021/12/02 06:39:50;;;;;;;6.77;2.83;;;;;;;2.89;100.00;95753.50;5034803;28;20053;-62
2021/12/02 06:42:17;;;;;;;4.33;2.53;;;;;;;2.85;100.00;95759.81;5034500;28;20126;-62
2021/12/02 06:44:45;;;;;;;4.13;2.77;;;;;;;2.92;100.00;95761.06;5018335;28;20131;-61
2021/12/02 06:47:12;;;;;;;2.50;1.60;;;;;;;3.10;100.00;95775.34;5035920;28;20046;-62
2021/12/02 06:49:40;;;;;;;2.47;1.80;;;;;;;3.08;100.00;95774.66;5035395;28;20052;-66
2021/12/02 06:52:11;;;;;;;4.17;2.20;;;;;;;3.18;100.00;95773.09;5033228;28;20384;-66
2021/12/02 06:54:39;;;;;;;6.13;2.50;;;;;;;3.18;100.00;95772.25;5018542;28;20046;-66
2021/12/02 06:57:08;;;;;;;5.57;2.60;;;;;;;3.13;100.00;95779.53;5035950;28;20771;-66
2021/12/02 06:59:35;;;;;;;4.87;2.73;;;;;;;3.23;100.00;95781.38;5039780;28;20065;-65
2021/12/02 07:02:02;;;;;;;5.40;2.90;;;;;;;3.18;100.00;95772.25;5037520;28;20419;-65
2021/12/02 07:04:29;;;;;;;5.70;2.40;;;;;;;3.31;100.00;95763.53;5038947;28;20052;-65
2021/12/02 07:06:56;;;;;;;4.23;2.37;;;;;;;3.31;100.00;95773.91;5043183;28;20049;-66
2021/12/02 07:09:25;;;;;;;9.97;3.80;;;;;;;3.29;100.00;95775.78;5035056;28;20053;-66
2021/12/02 07:11:52;;;;;;;9.83;3.70;;;;;;;3.37;100.00;95776.09;5029591;28;20521;-65
2021/12/02 07:14:20;;;;;;;4.87;2.83;;;;;;;3.34;100.00;95772.84;5029671;28;20149;-64
2021/12/02 07:16:47;;;;;;;5.23;2.50;;;;;;;3.46;100.00;95778.03;5012535;28;20049;-65
2021/12/02 07:19:15;;;;;;;4.47;2.67;;;;;;;3.48;100.00;95785.72;5032226;28;20461;-65
2021/12/02 07:21:43;;;;;;;5.07;3.47;;;;;;;3.58;100.00;95781.56;5031245;28;20111;-65
2021/12/02 07:24:13;;;;;;;5.87;2.20;;;;;;;3.58;100.00;95789.34;5031432;28;20053;-65
2021/12/02 07:26:46;;;;;;;5.77;3.53;;;;;;;3.52;100.00;95795.81;5032517;28;20058;-65
2021/12/02 07:29:15;;;;;;;4.45;2.00;;;;;;;3.81;100.00;95799.81;5031920;28;20076;-65
2021/12/02 07:31:43;;;;;;;5.47;2.63;;;;;;;3.62;100.00;95799.44;5034335;28;20049;-65
2021/12/02 07:34:11;;;;;;;3.63;2.13;;;;;;;3.83;100.00;95791.91;5035902;28;20091;-65
2021/12/02 07:36:38;;;;;;;5.90;2.17;;;;;;;3.86;100.00;95789.06;5032235;28;20103;-65
2021/12/02 07:39:08;;;;;;;6.60;3.33;;;;;;;4.05;100.00;95795.47;5032537;28;20068;-65
2021/12/02 07:41:36;;;;;;;4.73;2.50;;;;;;;3.99;100.00;95797.66;5034519;28;20108;-65
2021/12/02 07:44:06;;;;;;;11.73;3.10;;;;;;;4.18;100.00;95798.00;5033232;28;20065;-63
2021/12/02 07:46:33;;;;;;;8.30;3.33;;;;;;;4.02;100.00;95802.66;5034557;28;20057;-64
2021/12/02 07:49:00;;;;;;;5.97;3.23;;;;;;;4.05;100.00;95794.66;5012438;28;20054;-64
2021/12/02 07:51:30;;;;;;;8.13;5.23;;;;;;;4.10;100.00;95795.13;5032558;28;20053;-69
2021/12/02 07:53:58;;;;;;;6.03;2.63;;;;;;;4.00;100.00;95794.97;5034482;28;20041;-65
2021/12/02 07:56:26;;;;;;;6.73;4.33;;;;;;;4.35;100.00;95789.88;5031848;28;20141;-63
2021/12/02 07:58:53;;;;;;;5.00;2.70;;;;;;;4.40;100.00;95801.59;5027911;28;20045;-64
2021/12/02 08:01:22;;;;;;;5.17;2.60;;;;;;;4.70;100.00;95806.31;5028271;28;20053;-64
2021/12/02 08:03:51;;;;;;;8.23;3.13;;;;;;;4.62;100.00;95808.66;5034272;28;20072;-63
2021/12/02 08:06:18;;;;;;;6.10;3.60;;;;;;;4.32;100.00;95805.69;5016388;28;20112;-63
2021/12/02 08:08:47;;;;;;;6.33;3.33;;;;;;;3.95;100.00;95806.63;5018485;28;20098;-64
2021/12/02 08:11:14;;;;;;;6.53;3.80;;;;;;;4.07;100.00;95797.94;5019066;28;20055;-65
2021/12/02 08:13:41;;;;;;;8.70;2.67;;;;;;;4.08;100.00;95797.00;5035068;28;20054;-64
2021/12/02 08:16:08;;;;;;;6.70;4.13;;;;;;;4.15;100.00;95793.88;5033620;28;20046;-64
2021/12/02 08:18:37;;;;;;;15.73;6.20;;;;;;;4.26;100.00;95793.13;5034035;28;20088;-63
2021/12/02 08:21:05;;;;;;;10.07;4.40;;;;;;;4.28;100.00;95797.25;5036122;28;20042;-64
2021/12/02 08:23:38;;;;;;;12.37;5.77;;;;;;;4.30;100.00;95810.16;5034736;28;20124;-67
2021/12/02 08:26:05;;;;;;;9.45;4.63;;;;;;;4.37;100.00;95803.56;5034128;28;20046;-66
2021/12/02 08:28:32;;;;;;;12.43;5.57;;;;;;;4.48;100.00;95806.22;5030812;28;20418;-65
2021/12/02 08:30:59;;;;;;;8.47;5.03;;;;;;;4.42;100.00;95804.09;5028942;28;20581;-66
2021/12/02 08:33:26;;;;;;;7.17;2.93;;;;;;;4.59;100.00;95799.31;5031204;28;20048;-66
2021/12/02 08:36:01;;;;;;;6.67;3.10;;;;;;;4.43;100.00;95822.19;5031052;28;20049;-67
2021/12/02 08:38:32;;;;;;;7.33;3.43;;;;;;;4.57;100.00;95816.78;5011998;28;20108;-65
2021/12/02 08:40:59;;;;;;;5.87;3.23;;;;;;;4.61;100.00;95822.63;5028962;28;20046;-66
2021/12/02 08:43:27;;;;;;;5.10;2.60;;;;;;;4.70;100.00;95817.56;5014244;28;20046;-66
2021/12/02 08:45:54;;;;;;;5.17;2.87;;;;;;;5.03;100.00;95809.88;5030141;28;20124;-68
2021/12/02 08:48:21;;;;;;;3.57;2.30;;;;;;;5.02;100.00;95804.78;5034344;28;20052;-64
2021/12/02 08:50:48;;;;;;;5.17;2.80;;;;;;;5.14;100.00;95807.28;5028508;28;20044;-66
2021/12/02 08:53:17;;;;;;;5.83;2.97;;;;;;;5.16;100.00;95809.78;5031050;28;20054;-69
2021/12/02 08:55:44;;;;;;;4.67;2.27;;;;;;;5.04;100.00;95810.69;5030711;28;20042;-64
2021/12/02 08:58:11;;;;;;;3.27;2.07;;;;;;;5.21;100.00;95818.91;5036290;28;20095;-62
2021/12/02 09:00:40;;;;;;;3.47;2.27;;;;;;;5.24;100.00;95810.88;5030938;28;20107;-62
2021/12/02 09:03:10;;;;;;;7.33;2.53;;;;;;;5.33;99.93;95796.31;5031037;28;20134;-61
2021/12/02 09:05:37;;;;;;;4.70;2.43;;;;;;;5.27;100.00;95804.59;5033366;28;20048;-63
2021/12/02 09:08:05;;;;;;;5.10;2.57;;;;;;;5.35;100.00;95800.47;5030911;28;20034;-63
2021/12/02 09:10:35;;;;;;;3.00;2.43;;;;;;;5.39;100.00;95806.25;5030961;28;20133;-64
2021/12/02 09:13:07;;;;;;;5.33;3.47;;;;;;;5.46;100.00;95807.47;5031572;28;20057;-64
2021/12/02 09:15:34;;;;;;;4.90;3.00;;;;;;;5.30;100.00;95792.16;5025283;28;20077;-63
2021/12/02 09:18:01;;;;;;;4.10;2.83;;;;;;;5.62;100.00;95791.50;5027625;28;20085;-63
2021/12/02 09:20:28;;;;;;;4.23;2.73;;;;;;;5.47;100.00;95783.91;5031443;28;20060;-62
2021/12/02 09:22:55;;;;;;;4.63;2.80;;;;;;;5.35;100.00;95786.63;5008459;28;20073;-63
2021/12/02 09:25:23;;;;;;;5.53;2.63;;;;;;;5.39;100.00;95775.84;5031477;28;20095;-63
2021/12/02 09:27:51;;;;;;;3.80;2.70;;;;;;;5.37;100.00;95785.53;5031357;28;20045;-64
2021/12/02 09:30:19;;;;;;;4.00;2.30;;;;;;;5.35;100.00;95784.00;5013481;28;20049;-63
2021/12/02 09:32:46;;;;;;;6.30;2.77;;;;;;;5.36;100.00;95770.03;5029735;28;20045;-62
2021/12/02 09:35:14;;;;;;;2.97;2.10;;;;;;;5.42;100.00;95773.00;5031241;28;20095;-63
2021/12/02 09:37:42;;;;;;;2.90;2.33;;;;;;;5.53;100.00;95769.56;5031477;28;20055;-62
2021/12/02 09:40:12;;;;;;;4.57;2.70;;;;;;;5.50;100.00;95762.00;5031232;28;20045;-63
2021/12/02 09:42:40;;;;;;;5.93;2.20;;;;;;;5.63;100.00;95757.50;5030684;28;20190;-63
2021/12/02 09:45:09;;;;;;;3.40;2.60;;;;;;;5.62;100.00;95765.44;5030490;28;20128;-63
2021/12/02 09:47:38;;;;;;;6.20;2.90;;;;;;;5.70;100.00;95773.47;5031398;28;20073;-63
2021/12/02 09:50:12;;;;;;;3.93;2.13;;;;;;;5.64;100.00;95769.56;5031029;28;20042;-64
2021/12/02 09:52:40;;;;;;;;;;;;;;;5.57;100.00;95773.59;5032023;28;20133;-62
2021/12/02 09:55:13;;;;;;;4.87;2.50;;;;;;;5.56;100.00;95774.56;5029861;28;19928;-63
2021/12/02 09:57:44;;;;;;;3.35;2.08;;;;;;;5.68;100.00;95770.16;5031413;28;20503;-63
2021/12/02 10:00:17;;;;;;;4.23;2.63;;;;;;;5.55;100.00;95770.28;5030629;28;20446;-63
2021/12/02 10:02:52;;;;;;;6.43;2.00;;;;;;;5.59;100.00;95776.91;5031070;28;20045;-63
2021/12/02 10:05:30;;;;;;;3.80;2.40;;;;;;;5.59;100.00;95763.06;5029455;28;20037;-63
2021/12/02 10:08:02;;;;;;;4.83;2.70;;;;;;;5.66;100.00;95775.47;5030288;28;20517;-63
2021/12/02 10:10:32;;;;;;;4.23;2.80;;;;;;;5.72;100.00;95763.75;5026876;28;20061;-62
2021/12/02 10:16:10;;;;;;;4.07;2.67;;;;;;;5.90;100.00;95776.19;5030047;28;20045;-62
2021/12/02 10:18:48;;;;;;;5.10;2.43;;;;;;;5.75;100.00;95768.72;5027212;28;20054;-62
2021/12/02 10:21:20;;;;;;;4.57;2.13;;;;;;;6.07;100.00;95767.84;5007699;28;20115;-63
2021/12/02 10:23:47;;;;;;;3.87;2.67;;;;;;;5.87;100.00;95768.59;5029846;28;20052;-62
2021/12/02 10:26:18;;;;;;;3.20;2.33;;;;;;;6.03;100.00;95776.06;5010901;28;20319;-64
2021/12/02 10:28:47;;;;;;;2.83;2.33;;;;;;;5.94;100.00;95779.38;5029867;28;20049;-62
2021/12/02 10:31:23;;;;;;;4.07;2.20;;;;;;;6.14;100.00;95779.44;5029678;28;20103;-63
2021/12/02 10:33:54;;;;;;;3.10;2.23;;;;;;;5.99;100.00;95775.44;5028616;28;20107;-62
2021/12/02 10:36:30;;;;;;;3.37;2.10;;;;;;;6.11;100.00;95777.09;5028268;28;20048;-63
2021/12/02 10:39:00;;;;;;;4.57;2.27;;;;;;;6.12;100.00;95759.66;5010855;28;20111;-63
2021/12/02 10:41:29;;;;;;;4.23;2.83;;;;;;;6.12;100.00;95765.72;5027427;28;20041;-63
2021/12/02 10:44:10;;;;;;;3.77;2.80;;;;;;;6.09;100.00;95755.53;5010799;28;20049;-64
2021/12/02 10:46:51;;;;;;;3.67;2.00;;;;;;;6.06;100.00;95755.75;5028378;28;20517;-63
2021/12/02 10:49:19;;;;;;;3.17;2.57;;;;;;;6.08;100.00;95756.47;5027034;28;20065;-62
2021/12/02 10:51:51;;;;;;;4.43;3.13;;;;;;;6.29;100.00;95764.38;5026452;28;20413;-63
2021/12/02 10:54:21;;;;;;;4.67;2.73;;;;;;;6.42;100.00;95759.81;5011334;28;20049;-63
2021/12/02 10:56:51;;;;;;;4.70;2.97;;;;;;;6.73;100.00;95746.78;5028725;28;20053;-62
2021/12/02 10:59:27;;;;;;;4.57;3.00;;;;;;;6.63;100.00;95747.66;5011524;28;20067;-62
2021/12/02 11:01:59;;;;;;;4.27;2.63;;;;;;;6.54;100.00;95746.59;4994427;28;20509;-62
2021/12/02 11:04:27;;;;;;;5.43;2.67;;;;;;;6.77;100.00;95736.91;5028320;28;20046;-63
2021/12/02 11:07:21;;;;;;;9.07;3.57;;;;;;;7.05;100.00;95742.31;5010584;28;20092;-62
2021/12/02 11:09:51;;;;;;;2.83;2.53;;;;;;;6.95;100.00;95741.44;5010584;28;20059;-62
2021/12/02 11:12:21;;;;;;;7.33;2.83;;;;;;;6.90;100.00;95742.78;5010568;28;20061;-63
2021/12/02 11:15:01;;;;;;;6.07;3.43;;;;;;;6.82;100.00;95740.81;5027199;28;20150;-63
2021/12/02 11:17:35;;;;;;;2.73;1.97;;;;;;;6.96;100.00;95727.44;5010651;28;20080;-64
2021/12/02 11:20:08;;;;;;;4.57;2.33;;;;;;;7.04;100.00;95734.63;5027277;28;20045;-63
2021/12/02 11:22:36;;;;;;;4.37;3.47;;;;;;;7.20;100.00;95741.03;4995355;28;20056;-63
2021/12/02 11:25:07;;;;;;;5.60;2.90;;;;;;;7.09;100.00;95740.31;5028658;28;20119;-62
2021/12/02 11:27:38;;;;;;;4.27;2.73;;;;;;;7.22;100.00;95738.31;5029292;28;20044;-62
2021/12/02 11:30:09;;;;;;;5.60;2.10;;;;;;;7.46;100.00;95746.69;5011702;28;20150;-63
2021/12/02 11:32:40;;;;;;;3.37;2.00;;;;;;;7.65;98.65;95736.31;4995801;28;20144;-62
2021/12/02 11:35:15;;;;;;;6.43;2.33;;;;;;;7.61;98.84;95740.94;5027518;28;20045;-63
2021/12/02 11:37:45;;;;;;;5.60;2.60;;;;;;;7.64;99.48;95745.94;5027918;28;20112;-63
2021/12/02 11:40:16;;;;;;;2.80;2.00;;;;;;;7.22;100.00;95754.81;5027833;28;20057;-62
2021/12/02 11:42:44;;;;;;;3.70;2.33;;;;;;;7.15;100.00;95753.66;5028944;28;20418;-62
2021/12/02 11:45:13;;;;;;;2.47;1.83;;;;;;;6.96;100.00;95753.56;5027739;28;20041;-62
2021/12/02 11:47:42;;;;;;;3.00;1.50;;;;;;;7.05;99.99;95750.16;5029045;28;20107;-61